Airfield :
LOGIN :

Register | Disclaimer

   EN    FR    IT 

 










Legend :    VFR   Marginal VFR   IFR   Intensive IFR   Very Intensive IFR
Visi :
Ceiling :
>= 8 km
>= 3000ft
5 to 8 km
1000 to 3000 ft
1500m to 5 km
500 to 1000 ft
800 to 1500m
200 to 500 ft
< 800m
< 200 ft
Symbols :   Thunderstorms  Fog  Heavy snow  Heavy precipitations  Wind > 20 kt
SIGMETs :     Misc.  Thunderstorms  Icing  Turbulence  Mountain Waves  Volcanic Ashes






- Airport Elevation : 605 ft
- IATA code : BAY


LRBM - Tautii Magheraus

CURRENT METAR :
  • 281730Z 06005KT 5000 -RA BR SCT024 BKN028 04/04 Q1006 R09/29//95

EXPIRED METARs :
  • 281700Z 07006KT 5000 -RA BR FEW019 BKN026 BKN032 04/04 Q1007 R09/29//95
  • 281630Z 07007KT 4000 -RA BR SCT016 SCT024 BKN030 04/04 Q1007 R09/29//95
  • 281600Z 07007KT 4000 -RA BR BKN016 BKN024 OVC027 05/05 Q1007 R09/29//95
  • 281530Z 08006KT 4000 -RA BR BKN016 BKN023 OVC027 05/05 Q1007 R09/29//95
  • 281500Z 11004KT 5000 -RA BR SCT016 BKN022 OVC027 05/05 Q1007 R09/19//95

TAF TAF LRBM
Valid from the 28 at 18:00 until the 29 at 03:00 UTC


281700Z 2818/2903 07007KT 5000 -RA BR BKN015 BKN030
PROB40
TEMPO 2822/2903 28010KT 3000 SHRA BKN010 BKN030CB



MET'MAP, your aeronautical weather chart ! - Copyright ORBIFLY December 2007 - Disclaimer

ORBIFLY MET'MAP TEAM :

Programming & Development : Alexandra Zaïnal
Concept & original design : Baudouin d'Aumeries
Assistance for programming : Marc-Olivier Méhu
Technical & hardware support : Manuel Goepfert

Contact : metmap@orbifly.com




SOURCES & CREDITS :

   NOAA